Terminal Aerodrome Forecast
Issued by NWS Lake Charles, LA

Home | Current Version | Previous Version | Text Only | Print | Product List | Glossary On
Versions: 1 2 3 4 5 6 7 8 9 10 11 12 13
000
FTUS44 KLCH 031120
TAFAEX
TAF
KAEX 031120Z 0312/0412 17003KT 6SM BR SCT250
     FM031400 21006KT P6SM SCT030 SCT250
     FM032000 12008KT P6SM VCSH SCT040 BKN250
     FM040300 19004KT P6SM FEW040 BKN250=

USA.gov is the U.S. government's official web portal to all federal, state and local government web resources and services.